sensor_id;sensor_type;location;lat;lon;timestamp;P1;durP1;ratioP1;P2;durP2;ratioP2
35424;SDS011;21537;48.226;16.400;2022-11-20T00:02:25;41.10;;;17.55;;
35424;SDS011;21537;48.226;16.400;2022-11-20T00:04:51;37.08;;;15.45;;
35424;SDS011;21537;48.226;16.400;2022-11-20T00:07:17;37.08;;;16.05;;
35424;SDS011;21537;48.226;16.400;2022-11-20T00:09:43;41.67;;;17.73;;
35424;SDS011;21537;48.226;16.400;2022-11-20T00:12:08;39.67;;;17.63;;
35424;SDS011;21537;48.226;16.400;2022-11-20T00:14:34;39.40;;;16.80;;
35424;SDS011;21537;48.226;16.400;2022-11-20T00:17:00;39.85;;;17.73;;
35424;SDS011;21537;48.226;16.400;2022-11-20T00:19:26;35.17;;;16.35;;
35424;SDS011;21537;48.226;16.400;2022-11-20T00:21:53;41.65;;;16.20;;
35424;SDS011;21537;48.226;16.400;2022-11-20T00:24:20;37.92;;;15.48;;
35424;SDS011;21537;48.226;16.400;2022-11-20T00:26:46;38.80;;;17.38;;
35424;SDS011;21537;48.226;16.400;2022-11-20T00:29:12;35.13;;;16.60;;
35424;SDS011;21537;48.226;16.400;2022-11-20T00:31:38;37.25;;;16.60;;
35424;SDS011;21537;48.226;16.400;2022-11-20T00:34:03;37.50;;;16.67;;
35424;SDS011;21537;48.226;16.400;2022-11-20T00:36:31;42.42;;;17.13;;
35424;SDS011;21537;48.226;16.400;2022-11-20T00:38:58;39.20;;;16.83;;
35424;SDS011;21537;48.226;16.400;2022-11-20T00:41:26;37.30;;;16.25;;
35424;SDS011;21537;48.226;16.400;2022-11-20T00:43:53;38.20;;;17.27;;
35424;SDS011;21537;48.226;16.400;2022-11-20T00:46:21;38.97;;;16.10;;
35424;SDS011;21537;48.226;16.400;2022-11-20T00:48:48;38.97;;;16.98;;
35424;SDS011;21537;48.226;16.400;2022-11-20T00:51:15;40.78;;;17.27;;
35424;SDS011;21537;48.226;16.400;2022-11-20T00:53:43;41.33;;;17.40;;
35424;SDS011;21537;48.226;16.400;2022-11-20T00:56:10;38.92;;;16.88;;
35424;SDS011;21537;48.226;16.400;2022-11-20T00:58:38;40.65;;;17.20;;
35424;SDS011;21537;48.226;16.400;2022-11-20T01:01:07;39.97;;;17.27;;
35424;SDS011;21537;48.226;16.400;2022-11-20T01:03:33;43.67;;;18.25;;
35424;SDS011;21537;48.226;16.400;2022-11-20T01:06:01;40.67;;;18.08;;
35424;SDS011;21537;48.226;16.400;2022-11-20T01:08:32;40.22;;;16.27;;
35424;SDS011;21537;48.226;16.400;2022-11-20T01:11:09;36.17;;;16.63;;
35424;SDS011;21537;48.226;16.400;2022-11-20T01:13:36;39.60;;;17.33;;
35424;SDS011;21537;48.226;16.400;2022-11-20T01:16:13;40.28;;;17.95;;
35424;SDS011;21537;48.226;16.400;2022-11-20T01:18:41;45.60;;;18.67;;
35424;SDS011;21537;48.226;16.400;2022-11-20T01:21:12;41.60;;;17.88;;
35424;SDS011;21537;48.226;16.400;2022-11-20T01:23:41;40.85;;;18.40;;
35424;SDS011;21537;48.226;16.400;2022-11-20T01:26:18;41.80;;;18.38;;
35424;SDS011;21537;48.226;16.400;2022-11-20T01:28:45;41.08;;;18.25;;
35424;SDS011;21537;48.226;16.400;2022-11-20T01:31:17;44.38;;;18.08;;
35424;SDS011;21537;48.226;16.400;2022-11-20T01:33:47;40.20;;;17.67;;
35424;SDS011;21537;48.226;16.400;2022-11-20T01:36:15;40.13;;;17.90;;
35424;SDS011;21537;48.226;16.400;2022-11-20T01:38:41;40.47;;;17.38;;
35424;SDS011;21537;48.226;16.400;2022-11-20T01:41:08;39.50;;;18.08;;
35424;SDS011;21537;48.226;16.400;2022-11-20T01:43:35;43.30;;;18.00;;
35424;SDS011;21537;48.226;16.400;2022-11-20T01:46:06;40.35;;;17.92;;
35424;SDS011;21537;48.226;16.400;2022-11-20T01:51:17;38.25;;;17.13;;
35424;SDS011;21537;48.226;16.400;2022-11-20T01:53:49;41.72;;;17.90;;
35424;SDS011;21537;48.226;16.400;2022-11-20T01:56:17;41.63;;;18.35;;
35424;SDS011;21537;48.226;16.400;2022-11-20T01:58:48;41.83;;;16.83;;
35424;SDS011;21537;48.226;16.400;2022-11-20T02:03:43;42.70;;;17.92;;
35424;SDS011;21537;48.226;16.400;2022-11-20T02:06:11;38.33;;;16.73;;
35424;SDS011;21537;48.226;16.400;2022-11-20T02:09:07;38.60;;;16.77;;
35424;SDS011;21537;48.226;16.400;2022-11-20T02:11:33;42.95;;;18.65;;
35424;SDS011;21537;48.226;16.400;2022-11-20T02:13:59;42.15;;;18.10;;
35424;SDS011;21537;48.226;16.400;2022-11-20T02:16:29;41.95;;;18.35;;
35424;SDS011;21537;48.226;16.400;2022-11-20T02:18:59;42.00;;;17.92;;
35424;SDS011;21537;48.226;16.400;2022-11-20T02:24:02;43.75;;;18.25;;
35424;SDS011;21537;48.226;16.400;2022-11-20T02:26:29;44.28;;;18.65;;
35424;SDS011;21537;48.226;16.400;2022-11-20T02:28:58;47.90;;;19.15;;
35424;SDS011;21537;48.226;16.400;2022-11-20T02:31:25;37.50;;;17.17;;
35424;SDS011;21537;48.226;16.400;2022-11-20T02:33:58;42.30;;;18.17;;
35424;SDS011;21537;48.226;16.400;2022-11-20T02:36:24;44.58;;;18.50;;
35424;SDS011;21537;48.226;16.400;2022-11-20T02:38:52;45.47;;;19.25;;
35424;SDS011;21537;48.226;16.400;2022-11-20T02:41:19;45.20;;;18.50;;
35424;SDS011;21537;48.226;16.400;2022-11-20T02:43:44;45.42;;;19.75;;
35424;SDS011;21537;48.226;16.400;2022-11-20T02:46:10;46.83;;;18.85;;
35424;SDS011;21537;48.226;16.400;2022-11-20T02:48:36;45.65;;;20.20;;
35424;SDS011;21537;48.226;16.400;2022-11-20T02:51:02;43.30;;;19.08;;
35424;SDS011;21537;48.226;16.400;2022-11-20T02:53:28;46.00;;;19.67;;
35424;SDS011;21537;48.226;16.400;2022-11-20T02:55:54;42.30;;;19.65;;
35424;SDS011;21537;48.226;16.400;2022-11-20T02:58:20;43.88;;;19.77;;
35424;SDS011;21537;48.226;16.400;2022-11-20T03:00:46;46.65;;;19.27;;
35424;SDS011;21537;48.226;16.400;2022-11-20T03:03:11;46.30;;;20.25;;
35424;SDS011;21537;48.226;16.400;2022-11-20T03:05:37;44.08;;;18.73;;
35424;SDS011;21537;48.226;16.400;2022-11-20T03:08:03;46.88;;;19.50;;
35424;SDS011;21537;48.226;16.400;2022-11-20T03:10:29;50.35;;;19.95;;
35424;SDS011;21537;48.226;16.400;2022-11-20T03:12:55;41.95;;;18.85;;
35424;SDS011;21537;48.226;16.400;2022-11-20T03:15:24;47.45;;;20.05;;
35424;SDS011;21537;48.226;16.400;2022-11-20T03:17:52;50.00;;;20.52;;
35424;SDS011;21537;48.226;16.400;2022-11-20T03:20:19;44.45;;;19.95;;
35424;SDS011;21537;48.226;16.400;2022-11-20T03:22:45;43.15;;;19.23;;
35424;SDS011;21537;48.226;16.400;2022-11-20T03:25:11;44.13;;;18.80;;
35424;SDS011;21537;48.226;16.400;2022-11-20T03:27:37;49.97;;;18.80;;
35424;SDS011;21537;48.226;16.400;2022-11-20T03:30:03;45.17;;;19.75;;
35424;SDS011;21537;48.226;16.400;2022-11-20T03:32:30;46.55;;;20.40;;
35424;SDS011;21537;48.226;16.400;2022-11-20T03:34:56;53.08;;;21.85;;
35424;SDS011;21537;48.226;16.400;2022-11-20T03:37:22;44.95;;;20.73;;
35424;SDS011;21537;48.226;16.400;2022-11-20T03:39:48;45.65;;;19.83;;
35424;SDS011;21537;48.226;16.400;2022-11-20T03:42:13;45.65;;;20.17;;
35424;SDS011;21537;48.226;16.400;2022-11-20T03:44:58;52.15;;;21.35;;
35424;SDS011;21537;48.226;16.400;2022-11-20T03:47:24;49.72;;;21.48;;
35424;SDS011;21537;48.226;16.400;2022-11-20T03:49:49;48.03;;;18.85;;
35424;SDS011;21537;48.226;16.400;2022-11-20T03:52:15;49.05;;;21.50;;
35424;SDS011;21537;48.226;16.400;2022-11-20T03:54:41;50.67;;;20.23;;
35424;SDS011;21537;48.226;16.400;2022-11-20T03:57:07;46.28;;;19.55;;
35424;SDS011;21537;48.226;16.400;2022-11-20T03:59:33;47.05;;;19.65;;
35424;SDS011;21537;48.226;16.400;2022-11-20T04:01:58;47.28;;;20.13;;
35424;SDS011;21537;48.226;16.400;2022-11-20T04:04:24;41.58;;;18.75;;
35424;SDS011;21537;48.226;16.400;2022-11-20T04:06:50;52.47;;;21.38;;
35424;SDS011;21537;48.226;16.400;2022-11-20T04:09:16;48.30;;;20.23;;
35424;SDS011;21537;48.226;16.400;2022-11-20T04:11:42;53.83;;;20.13;;
35424;SDS011;21537;48.226;16.400;2022-11-20T04:14:12;50.40;;;20.63;;
35424;SDS011;21537;48.226;16.400;2022-11-20T04:16:39;45.03;;;19.17;;
35424;SDS011;21537;48.226;16.400;2022-11-20T04:19:08;49.72;;;20.75;;
35424;SDS011;21537;48.226;16.400;2022-11-20T04:21:36;48.47;;;19.83;;
35424;SDS011;21537;48.226;16.400;2022-11-20T04:24:02;45.00;;;19.67;;
35424;SDS011;21537;48.226;16.400;2022-11-20T04:26:29;47.55;;;20.02;;
35424;SDS011;21537;48.226;16.400;2022-11-20T04:28:56;51.88;;;20.95;;
35424;SDS011;21537;48.226;16.400;2022-11-20T04:31:23;53.70;;;21.67;;
35424;SDS011;21537;48.226;16.400;2022-11-20T04:33:51;46.40;;;20.10;;
35424;SDS011;21537;48.226;16.400;2022-11-20T04:36:18;48.88;;;20.95;;
35424;SDS011;21537;48.226;16.400;2022-11-20T04:38:45;47.67;;;19.90;;
35424;SDS011;21537;48.226;16.400;2022-11-20T04:41:17;43.33;;;18.88;;
35424;SDS011;21537;48.226;16.400;2022-11-20T04:43:48;51.15;;;20.73;;
35424;SDS011;21537;48.226;16.400;2022-11-20T04:48:49;48.10;;;20.63;;
35424;SDS011;21537;48.226;16.400;2022-11-20T04:51:15;47.80;;;19.50;;
35424;SDS011;21537;48.226;16.400;2022-11-20T04:53:41;47.70;;;20.50;;
35424;SDS011;21537;48.226;16.400;2022-11-20T04:56:08;44.03;;;19.27;;
35424;SDS011;21537;48.226;16.400;2022-11-20T04:58:35;41.20;;;17.40;;
35424;SDS011;21537;48.226;16.400;2022-11-20T05:01:02;47.30;;;20.67;;
35424;SDS011;21537;48.226;16.400;2022-11-20T05:03:28;47.40;;;19.85;;
35424;SDS011;21537;48.226;16.400;2022-11-20T05:05:54;44.35;;;19.88;;
35424;SDS011;21537;48.226;16.400;2022-11-20T05:08:20;44.08;;;19.23;;
35424;SDS011;21537;48.226;16.400;2022-11-20T05:10:46;44.88;;;19.70;;
35424;SDS011;21537;48.226;16.400;2022-11-20T05:13:12;42.78;;;18.95;;
35424;SDS011;21537;48.226;16.400;2022-11-20T05:15:38;44.38;;;19.23;;
35424;SDS011;21537;48.226;16.400;2022-11-20T05:18:04;42.10;;;19.35;;
35424;SDS011;21537;48.226;16.400;2022-11-20T05:20:29;41.30;;;19.15;;
35424;SDS011;21537;48.226;16.400;2022-11-20T05:22:58;42.78;;;17.98;;
35424;SDS011;21537;48.226;16.400;2022-11-20T05:25:24;46.78;;;20.02;;
35424;SDS011;21537;48.226;16.400;2022-11-20T05:27:50;41.30;;;18.42;;
35424;SDS011;21537;48.226;16.400;2022-11-20T05:30:16;49.00;;;19.80;;
35424;SDS011;21537;48.226;16.400;2022-11-20T05:32:42;46.92;;;20.52;;
35424;SDS011;21537;48.226;16.400;2022-11-20T05:35:07;48.00;;;19.10;;
35424;SDS011;21537;48.226;16.400;2022-11-20T05:37:33;44.92;;;18.92;;
35424;SDS011;21537;48.226;16.400;2022-11-20T05:39:59;49.78;;;20.52;;
35424;SDS011;21537;48.226;16.400;2022-11-20T05:42:25;44.47;;;19.13;;
35424;SDS011;21537;48.226;16.400;2022-11-20T05:44:57;53.50;;;20.65;;
35424;SDS011;21537;48.226;16.400;2022-11-20T05:47:24;49.10;;;20.38;;
35424;SDS011;21537;48.226;16.400;2022-11-20T05:49:50;47.55;;;19.58;;
35424;SDS011;21537;48.226;16.400;2022-11-20T05:52:16;45.38;;;20.63;;
35424;SDS011;21537;48.226;16.400;2022-11-20T05:54:42;44.00;;;18.90;;
35424;SDS011;21537;48.226;16.400;2022-11-20T05:57:08;52.72;;;21.65;;
35424;SDS011;21537;48.226;16.400;2022-11-20T05:59:33;45.42;;;20.10;;
35424;SDS011;21537;48.226;16.400;2022-11-20T06:01:59;47.17;;;19.40;;
35424;SDS011;21537;48.226;16.400;2022-11-20T06:04:25;50.25;;;20.88;;
35424;SDS011;21537;48.226;16.400;2022-11-20T06:06:51;47.53;;;21.10;;
35424;SDS011;21537;48.226;16.400;2022-11-20T06:09:16;47.63;;;19.90;;
35424;SDS011;21537;48.226;16.400;2022-11-20T06:11:42;48.75;;;20.48;;
35424;SDS011;21537;48.226;16.400;2022-11-20T06:14:08;47.33;;;20.30;;
35424;SDS011;21537;48.226;16.400;2022-11-20T06:16:34;47.50;;;19.45;;
35424;SDS011;21537;48.226;16.400;2022-11-20T06:18:59;48.70;;;19.75;;
35424;SDS011;21537;48.226;16.400;2022-11-20T06:21:25;49.45;;;20.08;;
35424;SDS011;21537;48.226;16.400;2022-11-20T06:23:52;59.47;;;21.13;;
35424;SDS011;21537;48.226;16.400;2022-11-20T06:26:22;50.90;;;21.42;;
35424;SDS011;21537;48.226;16.400;2022-11-20T06:28:50;51.20;;;21.08;;
35424;SDS011;21537;48.226;16.400;2022-11-20T06:31:17;50.08;;;20.20;;
35424;SDS011;21537;48.226;16.400;2022-11-20T06:33:44;50.60;;;19.98;;
35424;SDS011;21537;48.226;16.400;2022-11-20T06:36:11;53.20;;;22.13;;
35424;SDS011;21537;48.226;16.400;2022-11-20T06:38:39;48.08;;;20.73;;
35424;SDS011;21537;48.226;16.400;2022-11-20T06:41:05;52.78;;;21.40;;
35424;SDS011;21537;48.226;16.400;2022-11-20T06:43:32;53.25;;;22.48;;
35424;SDS011;21537;48.226;16.400;2022-11-20T06:45:58;47.20;;;19.73;;
35424;SDS011;21537;48.226;16.400;2022-11-20T06:48:25;55.20;;;21.17;;
35424;SDS011;21537;48.226;16.400;2022-11-20T06:50:52;56.75;;;22.38;;
35424;SDS011;21537;48.226;16.400;2022-11-20T06:53:18;53.35;;;22.08;;
35424;SDS011;21537;48.226;16.400;2022-11-20T06:55:45;55.35;;;21.95;;
35424;SDS011;21537;48.226;16.400;2022-11-20T06:58:12;51.13;;;21.02;;
35424;SDS011;21537;48.226;16.400;2022-11-20T07:00:39;50.33;;;21.23;;
35424;SDS011;21537;48.226;16.400;2022-11-20T07:03:05;50.45;;;20.35;;
35424;SDS011;21537;48.226;16.400;2022-11-20T07:05:32;49.90;;;21.23;;
35424;SDS011;21537;48.226;16.400;2022-11-20T07:07:58;48.33;;;21.67;;
35424;SDS011;21537;48.226;16.400;2022-11-20T07:10:24;49.88;;;21.15;;
35424;SDS011;21537;48.226;16.400;2022-11-20T07:12:53;53.03;;;21.95;;
35424;SDS011;21537;48.226;16.400;2022-11-20T07:15:20;52.38;;;22.30;;
35424;SDS011;21537;48.226;16.400;2022-11-20T07:17:48;49.90;;;21.23;;
35424;SDS011;21537;48.226;16.400;2022-11-20T07:20:14;51.65;;;20.75;;
35424;SDS011;21537;48.226;16.400;2022-11-20T07:22:40;53.08;;;22.77;;
35424;SDS011;21537;48.226;16.400;2022-11-20T07:25:06;50.47;;;21.20;;
35424;SDS011;21537;48.226;16.400;2022-11-20T07:27:33;47.45;;;20.95;;
35424;SDS011;21537;48.226;16.400;2022-11-20T07:29:59;50.97;;;20.80;;
35424;SDS011;21537;48.226;16.400;2022-11-20T07:32:25;48.55;;;20.70;;
35424;SDS011;21537;48.226;16.400;2022-11-20T07:34:51;53.05;;;21.80;;
35424;SDS011;21537;48.226;16.400;2022-11-20T07:37:17;46.13;;;20.92;;
35424;SDS011;21537;48.226;16.400;2022-11-20T07:39:43;47.75;;;22.02;;
35424;SDS011;21537;48.226;16.400;2022-11-20T07:42:09;48.17;;;21.58;;
35424;SDS011;21537;48.226;16.400;2022-11-20T07:44:36;46.90;;;20.48;;
35424;SDS011;21537;48.226;16.400;2022-11-20T07:47:02;53.85;;;23.80;;
35424;SDS011;21537;48.226;16.400;2022-11-20T07:49:28;50.38;;;22.00;;
35424;SDS011;21537;48.226;16.400;2022-11-20T07:51:53;52.92;;;21.80;;
35424;SDS011;21537;48.226;16.400;2022-11-20T07:54:20;50.08;;;21.88;;
35424;SDS011;21537;48.226;16.400;2022-11-20T07:56:46;49.65;;;20.65;;
35424;SDS011;21537;48.226;16.400;2022-11-20T07:59:12;51.83;;;20.77;;
35424;SDS011;21537;48.226;16.400;2022-11-20T08:01:38;49.50;;;21.73;;
35424;SDS011;21537;48.226;16.400;2022-11-20T08:04:05;47.90;;;21.40;;
35424;SDS011;21537;48.226;16.400;2022-11-20T08:06:31;49.55;;;20.77;;
35424;SDS011;21537;48.226;16.400;2022-11-20T08:08:57;52.65;;;22.05;;
35424;SDS011;21537;48.226;16.400;2022-11-20T08:11:23;53.58;;;21.58;;
35424;SDS011;21537;48.226;16.400;2022-11-20T08:14:07;52.63;;;21.48;;
35424;SDS011;21537;48.226;16.400;2022-11-20T08:16:44;47.90;;;21.67;;
35424;SDS011;21537;48.226;16.400;2022-11-20T08:19:12;55.13;;;22.73;;
35424;SDS011;21537;48.226;16.400;2022-11-20T08:21:39;50.85;;;22.35;;
35424;SDS011;21537;48.226;16.400;2022-11-20T08:24:05;52.95;;;21.13;;
35424;SDS011;21537;48.226;16.400;2022-11-20T08:26:32;49.95;;;21.23;;
35424;SDS011;21537;48.226;16.400;2022-11-20T08:28:59;55.67;;;23.15;;
35424;SDS011;21537;48.226;16.400;2022-11-20T08:31:25;44.28;;;21.00;;
35424;SDS011;21537;48.226;16.400;2022-11-20T08:33:52;53.35;;;22.67;;
35424;SDS011;21537;48.226;16.400;2022-11-20T08:36:18;51.70;;;22.80;;
35424;SDS011;21537;48.226;16.400;2022-11-20T08:38:49;50.75;;;22.38;;
35424;SDS011;21537;48.226;16.400;2022-11-20T08:41:19;47.50;;;20.88;;
35424;SDS011;21537;48.226;16.400;2022-11-20T08:43:48;52.80;;;22.65;;
35424;SDS011;21537;48.226;16.400;2022-11-20T08:46:19;45.65;;;21.20;;
35424;SDS011;21537;48.226;16.400;2022-11-20T08:48:45;49.83;;;22.10;;
35424;SDS011;21537;48.226;16.400;2022-11-20T08:51:11;49.55;;;22.33;;
35424;SDS011;21537;48.226;16.400;2022-11-20T08:53:38;48.53;;;22.00;;
35424;SDS011;21537;48.226;16.400;2022-11-20T08:56:04;52.78;;;23.10;;
35424;SDS011;21537;48.226;16.400;2022-11-20T08:58:31;50.63;;;22.08;;
35424;SDS011;21537;48.226;16.400;2022-11-20T09:00:56;50.03;;;22.17;;
35424;SDS011;21537;48.226;16.400;2022-11-20T09:03:22;52.67;;;23.42;;
35424;SDS011;21537;48.226;16.400;2022-11-20T09:05:48;50.50;;;23.33;;
35424;SDS011;21537;48.226;16.400;2022-11-20T09:08:14;51.42;;;21.88;;
35424;SDS011;21537;48.226;16.400;2022-11-20T09:10:40;56.65;;;23.10;;
35424;SDS011;21537;48.226;16.400;2022-11-20T09:13:09;49.70;;;22.60;;
35424;SDS011;21537;48.226;16.400;2022-11-20T09:15:38;51.90;;;23.58;;
35424;SDS011;21537;48.226;16.400;2022-11-20T09:18:10;50.78;;;22.80;;
35424;SDS011;21537;48.226;16.400;2022-11-20T09:20:36;57.60;;;24.13;;
35424;SDS011;21537;48.226;16.400;2022-11-20T09:23:02;53.55;;;23.13;;
35424;SDS011;21537;48.226;16.400;2022-11-20T09:25:28;55.38;;;24.02;;
35424;SDS011;21537;48.226;16.400;2022-11-20T09:27:57;55.45;;;23.85;;
35424;SDS011;21537;48.226;16.400;2022-11-20T09:30:24;57.55;;;24.35;;
35424;SDS011;21537;48.226;16.400;2022-11-20T09:32:50;70.38;;;24.75;;
35424;SDS011;21537;48.226;16.400;2022-11-20T09:35:16;54.80;;;24.10;;
35424;SDS011;21537;48.226;16.400;2022-11-20T09:37:43;58.25;;;24.67;;
35424;SDS011;21537;48.226;16.400;2022-11-20T09:40:30;56.22;;;23.35;;
35424;SDS011;21537;48.226;16.400;2022-11-20T09:51:56;63.05;;;24.90;;
35424;SDS011;21537;48.226;16.400;2022-11-20T09:54:38;62.42;;;24.65;;
35424;SDS011;21537;48.226;16.400;2022-11-20T09:57:09;59.75;;;25.50;;
35424;SDS011;21537;48.226;16.400;2022-11-20T09:59:39;60.03;;;24.20;;
35424;SDS011;21537;48.226;16.400;2022-11-20T10:02:24;57.65;;;23.90;;
35424;SDS011;21537;48.226;16.400;2022-11-20T10:04:59;58.05;;;24.42;;
35424;SDS011;21537;48.226;16.400;2022-11-20T10:07:38;60.50;;;26.10;;
35424;SDS011;21537;48.226;16.400;2022-11-20T10:10:14;62.38;;;26.42;;
35424;SDS011;21537;48.226;16.400;2022-11-20T10:15:33;59.58;;;26.50;;
35424;SDS011;21537;48.226;16.400;2022-11-20T10:20:49;61.60;;;25.77;;
35424;SDS011;21537;48.226;16.400;2022-11-20T10:31:39;58.55;;;25.55;;
35424;SDS011;21537;48.226;16.400;2022-11-20T10:36:50;62.90;;;26.13;;
35424;SDS011;21537;48.226;16.400;2022-11-20T10:39:39;60.15;;;27.77;;
35424;SDS011;21537;48.226;16.400;2022-11-20T10:42:48;68.32;;;29.10;;
35424;SDS011;21537;48.226;16.400;2022-11-20T10:48:10;64.53;;;27.52;;
35424;SDS011;21537;48.226;16.400;2022-11-20T10:53:19;62.63;;;25.27;;
35424;SDS011;21537;48.226;16.400;2022-11-20T10:56:20;59.90;;;25.15;;
35424;SDS011;21537;48.226;16.400;2022-11-20T11:02:21;57.25;;;24.40;;
35424;SDS011;21537;48.226;16.400;2022-11-20T11:04:49;55.17;;;25.10;;
35424;SDS011;21537;48.226;16.400;2022-11-20T11:09:57;56.58;;;24.67;;
35424;SDS011;21537;48.226;16.400;2022-11-20T11:14:55;60.38;;;25.60;;
35424;SDS011;21537;48.226;16.400;2022-11-20T11:17:27;61.60;;;25.55;;
35424;SDS011;21537;48.226;16.400;2022-11-20T11:20:06;60.47;;;24.77;;
35424;SDS011;21537;48.226;16.400;2022-11-20T11:22:43;61.85;;;25.55;;
35424;SDS011;21537;48.226;16.400;2022-11-20T11:27:56;63.85;;;27.98;;
35424;SDS011;21537;48.226;16.400;2022-11-20T11:30:24;66.20;;;26.52;;
35424;SDS011;21537;48.226;16.400;2022-11-20T11:33:01;61.60;;;26.13;;
35424;SDS011;21537;48.226;16.400;2022-11-20T11:35:29;58.95;;;25.63;;
35424;SDS011;21537;48.226;16.400;2022-11-20T11:38:02;60.00;;;25.15;;
35424;SDS011;21537;48.226;16.400;2022-11-20T11:40:57;61.03;;;26.98;;
35424;SDS011;21537;48.226;16.400;2022-11-20T11:43:28;58.08;;;26.08;;
35424;SDS011;21537;48.226;16.400;2022-11-20T11:46:25;59.78;;;25.35;;
35424;SDS011;21537;48.226;16.400;2022-11-20T11:51:28;60.53;;;25.30;;
35424;SDS011;21537;48.226;16.400;2022-11-20T11:54:16;60.05;;;26.20;;
35424;SDS011;21537;48.226;16.400;2022-11-20T11:56:46;64.97;;;27.75;;
35424;SDS011;21537;48.226;16.400;2022-11-20T11:59:15;57.67;;;26.65;;
35424;SDS011;21537;48.226;16.400;2022-11-20T12:01:52;54.40;;;25.40;;
35424;SDS011;21537;48.226;16.400;2022-11-20T12:04:43;58.25;;;26.20;;
35424;SDS011;21537;48.226;16.400;2022-11-20T12:07:25;58.80;;;27.15;;
35424;SDS011;21537;48.226;16.400;2022-11-20T12:10:00;57.17;;;27.63;;
35424;SDS011;21537;48.226;16.400;2022-11-20T12:12:33;58.55;;;26.77;;
35424;SDS011;21537;48.226;16.400;2022-11-20T12:15:06;59.80;;;27.00;;
35424;SDS011;21537;48.226;16.400;2022-11-20T12:17:37;59.95;;;27.42;;
35424;SDS011;21537;48.226;16.400;2022-11-20T12:20:05;61.17;;;26.17;;
35424;SDS011;21537;48.226;16.400;2022-11-20T12:25:19;56.33;;;25.60;;
35424;SDS011;21537;48.226;16.400;2022-11-20T12:31:03;55.58;;;26.00;;
35424;SDS011;21537;48.226;16.400;2022-11-20T12:39:35;56.97;;;27.02;;
35424;SDS011;21537;48.226;16.400;2022-11-20T12:42:25;55.58;;;25.80;;
35424;SDS011;21537;48.226;16.400;2022-11-20T12:51:14;53.08;;;24.38;;
35424;SDS011;21537;48.226;16.400;2022-11-20T12:56:49;54.15;;;26.05;;
35424;SDS011;21537;48.226;16.400;2022-11-20T12:59:45;53.15;;;25.27;;
35424;SDS011;21537;48.226;16.400;2022-11-20T13:02:33;52.67;;;25.65;;
35424;SDS011;21537;48.226;16.400;2022-11-20T13:07:42;57.60;;;26.20;;
35424;SDS011;21537;48.226;16.400;2022-11-20T13:18:18;52.23;;;23.90;;
35424;SDS011;21537;48.226;16.400;2022-11-20T13:20:44;53.35;;;25.10;;
35424;SDS011;21537;48.226;16.400;2022-11-20T13:23:11;54.83;;;25.30;;
35424;SDS011;21537;48.226;16.400;2022-11-20T13:25:47;55.70;;;26.05;;
35424;SDS011;21537;48.226;16.400;2022-11-20T13:30:53;55.65;;;26.50;;
35424;SDS011;21537;48.226;16.400;2022-11-20T13:33:28;54.90;;;25.45;;
35424;SDS011;21537;48.226;16.400;2022-11-20T13:36:05;54.95;;;25.77;;
35424;SDS011;21537;48.226;16.400;2022-11-20T13:38:49;61.83;;;27.00;;
35424;SDS011;21537;48.226;16.400;2022-11-20T13:41:26;55.38;;;25.75;;
35424;SDS011;21537;48.226;16.400;2022-11-20T13:43:59;53.95;;;25.95;;
35424;SDS011;21537;48.226;16.400;2022-11-20T13:46:44;54.65;;;25.30;;
35424;SDS011;21537;48.226;16.400;2022-11-20T13:49:23;59.35;;;26.13;;
35424;SDS011;21537;48.226;16.400;2022-11-20T14:00:19;53.30;;;25.80;;
35424;SDS011;21537;48.226;16.400;2022-11-20T14:05:31;54.65;;;25.42;;
35424;SDS011;21537;48.226;16.400;2022-11-20T14:08:02;62.10;;;29.52;;
35424;SDS011;21537;48.226;16.400;2022-11-20T14:10:30;60.28;;;27.85;;
35424;SDS011;21537;48.226;16.400;2022-11-20T14:12:56;59.95;;;26.90;;
35424;SDS011;21537;48.226;16.400;2022-11-20T14:17:56;64.15;;;28.90;;
35424;SDS011;21537;48.226;16.400;2022-11-20T14:20:25;68.43;;;29.77;;
35424;SDS011;21537;48.226;16.400;2022-11-20T14:22:53;69.68;;;29.02;;
35424;SDS011;21537;48.226;16.400;2022-11-20T14:25:24;61.95;;;26.63;;
35424;SDS011;21537;48.226;16.400;2022-11-20T14:27:57;58.60;;;25.50;;
35424;SDS011;21537;48.226;16.400;2022-11-20T14:30:25;59.13;;;24.92;;
35424;SDS011;21537;48.226;16.400;2022-11-20T14:32:54;56.75;;;25.83;;
35424;SDS011;21537;48.226;16.400;2022-11-20T14:37:53;54.92;;;24.45;;
35424;SDS011;21537;48.226;16.400;2022-11-20T14:40:25;56.03;;;24.88;;
35424;SDS011;21537;48.226;16.400;2022-11-20T14:42:56;47.47;;;23.23;;
35424;SDS011;21537;48.226;16.400;2022-11-20T14:45:23;57.13;;;24.80;;
35424;SDS011;21537;48.226;16.400;2022-11-20T14:47:51;57.17;;;24.58;;
35424;SDS011;21537;48.226;16.400;2022-11-20T14:50:25;51.75;;;23.85;;
35424;SDS011;21537;48.226;16.400;2022-11-20T14:52:55;60.45;;;26.33;;
35424;SDS011;21537;48.226;16.400;2022-11-20T14:55:36;56.88;;;25.58;;
35424;SDS011;21537;48.226;16.400;2022-11-20T14:58:18;54.75;;;24.83;;
35424;SDS011;21537;48.226;16.400;2022-11-20T15:01:00;60.35;;;26.60;;
35424;SDS011;21537;48.226;16.400;2022-11-20T15:03:39;56.15;;;25.77;;
35424;SDS011;21537;48.226;16.400;2022-11-20T15:06:06;54.72;;;24.63;;
35424;SDS011;21537;48.226;16.400;2022-11-20T15:08:35;57.10;;;26.45;;
35424;SDS011;21537;48.226;16.400;2022-11-20T15:11:01;55.50;;;24.88;;
35424;SDS011;21537;48.226;16.400;2022-11-20T15:13:32;59.85;;;25.63;;
35424;SDS011;21537;48.226;16.400;2022-11-20T15:16:01;57.85;;;24.98;;
35424;SDS011;21537;48.226;16.400;2022-11-20T15:18:32;63.25;;;26.95;;
35424;SDS011;21537;48.226;16.400;2022-11-20T15:21:02;61.40;;;26.80;;
35424;SDS011;21537;48.226;16.400;2022-11-20T15:23:35;61.30;;;25.48;;
35424;SDS011;21537;48.226;16.400;2022-11-20T15:26:01;60.17;;;26.73;;
35424;SDS011;21537;48.226;16.400;2022-11-20T15:28:33;60.78;;;26.58;;
35424;SDS011;21537;48.226;16.400;2022-11-20T15:31:02;64.53;;;27.75;;
35424;SDS011;21537;48.226;16.400;2022-11-20T15:33:29;79.30;;;31.15;;
35424;SDS011;21537;48.226;16.400;2022-11-20T15:35:56;65.85;;;27.75;;
35424;SDS011;21537;48.226;16.400;2022-11-20T15:38:22;72.53;;;31.02;;
35424;SDS011;21537;48.226;16.400;2022-11-20T15:40:48;74.57;;;31.38;;
35424;SDS011;21537;48.226;16.400;2022-11-20T15:43:14;75.97;;;30.55;;
35424;SDS011;21537;48.226;16.400;2022-11-20T15:45:41;73.05;;;30.48;;
35424;SDS011;21537;48.226;16.400;2022-11-20T15:48:12;74.47;;;30.60;;
35424;SDS011;21537;48.226;16.400;2022-11-20T15:50:43;72.30;;;28.83;;
35424;SDS011;21537;48.226;16.400;2022-11-20T15:53:35;65.20;;;27.15;;
35424;SDS011;21537;48.226;16.400;2022-11-20T15:56:02;77.10;;;29.33;;
35424;SDS011;21537;48.226;16.400;2022-11-20T15:58:29;67.20;;;28.40;;
35424;SDS011;21537;48.226;16.400;2022-11-20T16:00:55;65.63;;;28.73;;
35424;SDS011;21537;48.226;16.400;2022-11-20T16:03:24;68.35;;;29.30;;
35424;SDS011;21537;48.226;16.400;2022-11-20T16:05:50;70.68;;;27.30;;
35424;SDS011;21537;48.226;16.400;2022-11-20T16:08:16;65.90;;;27.75;;